Station Historical Data
Daily Summary for January 11, 2017 Units:  Both    English   Metric
« Previous Day
Next Day »
Daily Weekly Monthly Yearly Custom
  High: Low: Average:
Temperature: 52.0 °F /  11.1 °C 35.3 °F /  1.8 °C 43.4 °F /  6.3 °C
Dew Point: 45.5 °F /  7.5 °C 23.6 °F /  -4.7 °C 32 °F /  0 °C
Humidity: 86% 36% 66%
Wind Speed: 26.0mph /  41.8km/h - 8.3mph /  13.4km/h
Wind Gust: 42.0mph /  67.6km/h - -
Wind- - SSW
Pressure: 30.17 in /  1021.6 hPa 29.60 in /  1002.3 hPa -
Precipitation: 0.00 in /  0 mm    
Historical Graphs
 
 
Tabular Data for January 11, 2017
Time Temperature Dew Point Pressure Wind Wind Speed Wind Gust Humidity Rainfall Rate (Hourly)
00:04 44.2 °F /  6.8 °C 40.0 °F /  4.4 °C 29.62in /  1002.9hPa SSW 12.0mph /  19.3km/h 21.0mph /  33.8km/h 85% 0.04in /  1.02mm
00:09 44.5 °F /  6.9 °C 40.3 °F /  4.6 °C 29.62in /  1002.9hPa SSW 13.0mph /  20.9km/h 32.0mph /  51.5km/h 85% 0.04in /  1.02mm
00:14 44.8 °F /  7.1 °C 40.3 °F /  4.6 °C 29.60in /  1002.3hPa South 15.0mph /  24.1km/h 32.0mph /  51.5km/h 84% 0.04in /  1.02mm
00:19 44.7 °F /  7.1 °C 40.2 °F /  4.6 °C 29.60in /  1002.3hPa South 15.0mph /  24.1km/h 28.0mph /  45.1km/h 84% 0.03in /  0.76mm
00:24 44.8 °F /  7.1 °C 40.3 °F /  4.6 °C 29.60in /  1002.3hPa South 14.0mph /  22.5km/h 28.0mph /  45.1km/h 84% 0.03in /  0.76mm
00:29 44.9 °F /  7.2 °C 40.4 °F /  4.7 °C 29.61in /  1002.6hPa SSW 11.0mph /  17.7km/h 23.0mph /  37km/h 84% 0.03in /  0.76mm
00:34 44.9 °F /  7.2 °C 40.4 °F /  4.7 °C 29.60in /  1002.3hPa SSW 11.0mph /  17.7km/h 20.0mph /  32.2km/h 84% 0.02in /  0.51mm
00:39 44.8 °F /  7.1 °C 40.3 °F /  4.6 °C 29.60in /  1002.3hPa South 11.0mph /  17.7km/h 24.0mph /  38.6km/h 84% 0.02in /  0.51mm
00:44 44.9 °F /  7.2 °C 40.4 °F /  4.7 °C 29.61in /  1002.6hPa SSW 8.0mph /  12.9km/h 25.0mph /  40.2km/h 84% 0.01in /  0.25mm
00:49 44.9 °F /  7.2 °C 40.0 °F /  4.4 °C 29.61in /  1002.6hPa SSW 12.0mph /  19.3km/h 26.0mph /  41.8km/h 83% 0.01in /  0.25mm
00:54 44.9 °F /  7.2 °C 40.0 °F /  4.4 °C 29.60in /  1002.3hPa SSE 19.0mph /  30.6km/h 26.0mph /  41.8km/h 83% 0.01in /  0.25mm
00:59 45.1 °F /  7.3 °C 40.2 °F /  4.6 °C 29.60in /  1002.3hPa SSW 17.0mph /  27.4km/h 24.0mph /  38.6km/h 83% 0.00in /  0mm
01:04 45.0 °F /  7.2 °C 40.1 °F /  4.5 °C 29.61in /  1002.6hPa South 17.0mph /  27.4km/h 22.0mph /  35.4km/h 83% 0.00in /  0mm
01:09 45.1 °F /  7.3 °C 40.6 °F /  4.8 °C 29.61in /  1002.6hPa SSE 11.0mph /  17.7km/h 20.0mph /  32.2km/h 84% 0.01in /  0.25mm
01:14 45.2 °F /  7.3 °C 40.7 °F /  4.8 °C 29.62in /  1002.9hPa SSW 8.0mph /  12.9km/h 22.0mph /  35.4km/h 84% 0.01in /  0.25mm
01:19 45.2 °F /  7.3 °C 41.3 °F /  5.2 °C 29.67in /  1004.6hPa SW 12.0mph /  19.3km/h 39.0mph /  62.8km/h 86% 0.06in /  1.52mm
01:24 44.2 °F /  6.8 °C 39.7 °F /  4.3 °C 29.68in /  1005hPa SW 18.0mph /  29km/h 42.0mph /  67.6km/h 84% 0.06in /  1.52mm
01:29 43.0 °F /  6.1 °C 38.5 °F /  3.6 °C 29.69in /  1005.3hPa WSW 19.0mph /  30.6km/h 42.0mph /  67.6km/h 84% 0.06in /  1.52mm
01:34 42.1 °F /  5.6 °C 37.9 °F /  3.3 °C 29.69in /  1005.3hPa WSW 18.0mph /  29km/h 40.0mph /  64.4km/h 85% 0.07in /  1.78mm
01:39 41.5 °F /  5.3 °C 37.3 °F /  2.9 °C 29.70in /  1005.6hPa WSW 20.0mph /  32.2km/h 40.0mph /  64.4km/h 85% 0.07in /  1.78mm
01:44 41.2 °F /  5.1 °C 36.7 °F /  2.6 °C 29.71in /  1006hPa WSW 19.0mph /  30.6km/h 35.0mph /  56.3km/h 84% 0.07in /  1.78mm
01:49 40.7 °F /  4.8 °C 35.9 °F /  2.2 °C 29.73in /  1006.7hPa WSW 18.0mph /  29km/h 33.0mph /  53.1km/h 83% 0.07in /  1.78mm
01:54 40.3 °F /  4.6 °C 35.2 °F /  1.8 °C 29.73in /  1006.7hPa SW 21.0mph /  33.8km/h 31.0mph /  49.9km/h 82% 0.07in /  1.78mm
01:59 39.8 °F /  4.3 °C 34.8 °F /  1.6 °C 29.75in /  1007.3hPa WSW 15.0mph /  24.1km/h 30.0mph /  48.3km/h 82% 0.07in /  1.78mm
02:04 39.5 °F /  4.2 °C 34.5 °F /  1.4 °C 29.76in /  1007.7hPa West 15.0mph /  24.1km/h 39.0mph /  62.8km/h 82% 0.07in /  1.78mm
02:09 39.3 °F /  4.1 °C 34.3 °F /  1.3 °C 29.77in /  1008hPa SW 13.0mph /  20.9km/h 28.0mph /  45.1km/h 82% 0.06in /  1.52mm
02:14 39.2 °F /  4 °C 34.2 °F /  1.2 °C 29.77in /  1008hPa West 26.0mph /  41.8km/h 32.0mph /  51.5km/h 82% 0.06in /  1.52mm
02:19 39.0 °F /  3.9 °C 34.0 °F /  1.1 °C 29.78in /  1008.4hPa SW 21.0mph /  33.8km/h 32.0mph /  51.5km/h 82% 0.01in /  0.25mm
02:24 38.8 °F /  3.8 °C 33.8 °F /  1 °C 29.80in /  1009hPa WSW 10.0mph /  16.1km/h 40.0mph /  64.4km/h 82% 0.01in /  0.25mm
02:29 38.6 °F /  3.7 °C 33.6 °F /  0.9 °C 29.80in /  1009hPa WSW 17.0mph /  27.4km/h 40.0mph /  64.4km/h 82% 0.01in /  0.25mm
02:34 38.4 °F /  3.6 °C 33.4 °F /  0.8 °C 29.80in /  1009hPa WSW 17.0mph /  27.4km/h 35.0mph /  56.3km/h 82% 0.00in /  0mm
02:39 38.2 °F /  3.4 °C 33.2 °F /  0.7 °C 29.81in /  1009.4hPa WSW 17.0mph /  27.4km/h 35.0mph /  56.3km/h 82% 0.00in /  0mm
02:44 38.2 °F /  3.4 °C 33.2 °F /  0.7 °C 29.82in /  1009.7hPa SW 9.0mph /  14.5km/h 32.0mph /  51.5km/h 82% 0.00in /  0mm
02:49 38.1 °F /  3.4 °C 33.1 °F /  0.6 °C 29.83in /  1010hPa WSW 18.0mph /  29km/h 32.0mph /  51.5km/h 82% 0.00in /  0mm
02:54 38.0 °F /  3.3 °C 33.0 °F /  0.6 °C 29.83in /  1010hPa WSW 17.0mph /  27.4km/h 31.0mph /  49.9km/h 82% 0.00in /  0mm
02:59 37.9 °F /  3.3 °C 32.9 °F /  0.5 °C 29.85in /  1010.7hPa SW 16.0mph /  25.7km/h 31.0mph /  49.9km/h 82% 0.00in /  0mm
03:04 37.8 °F /  3.2 °C 32.8 °F /  0.4 °C 29.85in /  1010.7hPa SW 11.0mph /  17.7km/h 29.0mph /  46.7km/h 82% 0.00in /  0mm
03:09 37.7 °F /  3.2 °C 32.4 °F /  0.2 °C 29.86in /  1011.1hPa SSW 14.0mph /  22.5km/h 31.0mph /  49.9km/h 81% 0.00in /  0mm
03:14 37.6 °F /  3.1 °C 32.3 °F /  0.2 °C 29.87in /  1011.4hPa WSW 8.0mph /  12.9km/h 32.0mph /  51.5km/h 81% 0.00in /  0mm
03:19 37.5 °F /  3.1 °C 32.5 °F /  0.3 °C 29.88in /  1011.7hPa SSW 17.0mph /  27.4km/h 28.0mph /  45.1km/h 82% 0.00in /  0mm
03:24 37.6 °F /  3.1 °C 32.6 °F /  0.3 °C 29.88in /  1011.7hPa WSW 15.0mph /  24.1km/h 33.0mph /  53.1km/h 82% 0.00in /  0mm
03:29 37.7 °F /  3.2 °C 33.0 °F /  0.6 °C 29.90in /  1012.4hPa WSW 16.0mph /  25.7km/h 33.0mph /  53.1km/h 83% 0.00in /  0mm
03:34 37.6 °F /  3.1 °C 32.9 °F /  0.5 °C 29.89in /  1012.1hPa WSW 15.0mph /  24.1km/h 33.0mph /  53.1km/h 83% 0.00in /  0mm
03:39 37.6 °F /  3.1 °C 32.9 °F /  0.5 °C 29.90in /  1012.4hPa SW 22.0mph /  35.4km/h 32.0mph /  51.5km/h 83% 0.00in /  0mm
03:44 37.5 °F /  3.1 °C 32.5 °F /  0.3 °C 29.89in /  1012.1hPa WSW 15.0mph /  24.1km/h 32.0mph /  51.5km/h 82% 0.00in /  0mm
03:49 37.5 °F /  3.1 °C 32.5 °F /  0.3 °C 29.89in /  1012.1hPa SW 19.0mph /  30.6km/h 31.0mph /  49.9km/h 82% 0.00in /  0mm
03:54 37.4 °F /  3 °C 32.4 °F /  0.2 °C 29.90in /  1012.4hPa SW 18.0mph /  29km/h 29.0mph /  46.7km/h 82% 0.00in /  0mm
03:59 37.3 °F /  2.9 °C 32.3 °F /  0.2 °C 29.90in /  1012.4hPa WSW 15.0mph /  24.1km/h 29.0mph /  46.7km/h 82% 0.00in /  0mm
04:04 37.2 °F /  2.9 °C 32.5 °F /  0.3 °C 29.90in /  1012.4hPa WSW 14.0mph /  22.5km/h 26.0mph /  41.8km/h 83% 0.00in /  0mm
04:09 37.0 °F /  2.8 °C 32.3 °F /  0.2 °C 29.91in /  1012.8hPa SW 12.0mph /  19.3km/h 25.0mph /  40.2km/h 83% 0.00in /  0mm
04:14 37.0 °F /  2.8 °C 32.3 °F /  0.2 °C 29.91in /  1012.8hPa WSW 12.0mph /  19.3km/h 29.0mph /  46.7km/h 83% 0.00in /  0mm
04:19 36.9 °F /  2.7 °C 32.2 °F /  0.1 °C 29.92in /  1013.1hPa SW 18.0mph /  29km/h 26.0mph /  41.8km/h 83% 0.00in /  0mm
04:24 36.9 °F /  2.7 °C 32.2 °F /  0.1 °C 29.93in /  1013.4hPa SW 14.0mph /  22.5km/h 28.0mph /  45.1km/h 83% 0.00in /  0mm
04:29 36.8 °F /  2.7 °C 32.1 °F /  0.1 °C 29.94in /  1013.8hPa SW 16.0mph /  25.7km/h 30.0mph /  48.3km/h 83% 0.00in /  0mm
04:34 36.8 °F /  2.7 °C 31.8 °F /  -0.1 °C 29.94in /  1013.8hPa SW 15.0mph /  24.1km/h 30.0mph /  48.3km/h 82% 0.00in /  0mm
04:39 36.8 °F /  2.7 °C 31.8 °F /  -0.1 °C 29.95in /  1014.1hPa WSW 16.0mph /  25.7km/h 28.0mph /  45.1km/h 82% 0.00in /  0mm
04:49 36.5 °F /  2.5 °C 31.5 °F /  -0.3 °C 29.96in /  1014.4hPa SW 8.0mph /  12.9km/h 29.0mph /  46.7km/h 82% 0.00in /  0mm
04:54 36.4 °F /  2.4 °C 31.4 °F /  -0.3 °C 29.97in /  1014.8hPa WSW 13.0mph /  20.9km/h 23.0mph /  37km/h 82% 0.00in /  0mm
04:59 36.3 °F /  2.4 °C 31.0 °F /  -0.6 °C 29.97in /  1014.8hPa WSW 14.0mph /  22.5km/h 29.0mph /  46.7km/h 81% 0.00in /  0mm
05:04 36.3 °F /  2.4 °C 31.0 °F /  -0.6 °C 29.97in /  1014.8hPa WSW 15.0mph /  24.1km/h 32.0mph /  51.5km/h 81% 0.00in /  0mm
05:09 36.2 °F /  2.3 °C 30.9 °F /  -0.6 °C 29.97in /  1014.8hPa WSW 13.0mph /  20.9km/h 32.0mph /  51.5km/h 81% 0.00in /  0mm
05:14 36.1 °F /  2.3 °C 30.8 °F /  -0.7 °C 29.98in /  1015.1hPa SW 13.0mph /  20.9km/h 25.0mph /  40.2km/h 81% 0.00in /  0mm
05:19 36.1 °F /  2.3 °C 30.8 °F /  -0.7 °C 29.99in /  1015.5hPa SSW 11.0mph /  17.7km/h 25.0mph /  40.2km/h 81% 0.00in /  0mm
05:24 36.1 °F /  2.3 °C 30.8 °F /  -0.7 °C 29.99in /  1015.5hPa South 7.0mph /  11.3km/h 22.0mph /  35.4km/h 81% 0.00in /  0mm
05:29 36.0 °F /  2.2 °C 30.7 °F /  -0.7 °C 30.00in /  1015.8hPa SW 15.0mph /  24.1km/h 25.0mph /  40.2km/h 81% 0.00in /  0mm
05:34 36.0 °F /  2.2 °C 30.7 °F /  -0.7 °C 30.00in /  1015.8hPa WSW 15.0mph /  24.1km/h 26.0mph /  41.8km/h 81% 0.00in /  0mm
05:39 36.0 °F /  2.2 °C 30.7 °F /  -0.7 °C 30.01in /  1016.1hPa SW 12.0mph /  19.3km/h 22.0mph /  35.4km/h 81% 0.00in /  0mm
05:44 36.0 °F /  2.2 °C 30.7 °F /  -0.7 °C 30.01in /  1016.1hPa SW 15.0mph /  24.1km/h 32.0mph /  51.5km/h 81% 0.00in /  0mm
05:49 36.0 °F /  2.2 °C 30.4 °F /  -0.9 °C 30.02in /  1016.5hPa West 13.0mph /  20.9km/h 26.0mph /  41.8km/h 80% 0.00in /  0mm
05:54 36.0 °F /  2.2 °C 30.4 °F /  -0.9 °C 30.02in /  1016.5hPa WNW 20.0mph /  32.2km/h 30.0mph /  48.3km/h 80% 0.00in /  0mm
05:59 36.0 °F /  2.2 °C 30.1 °F /  -1.1 °C 30.03in /  1016.8hPa WSW 9.0mph /  14.5km/h 29.0mph /  46.7km/h 79% 0.00in /  0mm
06:04 35.9 °F /  2.2 °C 30.3 °F /  -0.9 °C 30.03in /  1016.8hPa SW 10.0mph /  16.1km/h 23.0mph /  37km/h 80% 0.00in /  0mm
06:09 35.9 °F /  2.2 °C 30.3 °F /  -0.9 °C 30.03in /  1016.8hPa WSW 12.0mph /  19.3km/h 24.0mph /  38.6km/h 80% 0.00in /  0mm
06:14 35.9 °F /  2.2 °C 30.3 °F /  -0.9 °C 30.04in /  1017.2hPa WSW 12.0mph /  19.3km/h 24.0mph /  38.6km/h 80% 0.00in /  0mm
06:19 35.9 °F /  2.2 °C 30.6 °F /  -0.8 °C 30.05in /  1017.5hPa WSW 12.0mph /  19.3km/h 22.0mph /  35.4km/h 81% 0.00in /  0mm
06:24 35.9 °F /  2.2 °C 30.3 °F /  -0.9 °C 30.04in /  1017.2hPa SW 11.0mph /  17.7km/h 22.0mph /  35.4km/h 80% 0.00in /  0mm
06:29 35.7 °F /  2.1 °C 30.1 °F /  -1.1 °C 30.04in /  1017.2hPa WSW 11.0mph /  17.7km/h 25.0mph /  40.2km/h 80% 0.00in /  0mm
06:34 35.6 °F /  2 °C 30.0 °F /  -1.1 °C 30.04in /  1017.2hPa WSW 19.0mph /  30.6km/h 20.0mph /  32.2km/h 80% 0.00in /  0mm
06:39 35.6 °F /  2 °C 30.0 °F /  -1.1 °C 30.04in /  1017.2hPa WSW 12.0mph /  19.3km/h 24.0mph /  38.6km/h 80% 0.00in /  0mm
06:44 35.6 °F /  2 °C 30.0 °F /  -1.1 °C 30.05in /  1017.5hPa SW 12.0mph /  19.3km/h 22.0mph /  35.4km/h 80% 0.00in /  0mm
06:49 35.6 °F /  2 °C 30.0 °F /  -1.1 °C 30.05in /  1017.5hPa SW 14.0mph /  22.5km/h 22.0mph /  35.4km/h 80% 0.00in /  0mm
06:54 35.6 °F /  2 °C 30.0 °F /  -1.1 °C 30.05in /  1017.5hPa SSW 7.0mph /  11.3km/h 22.0mph /  35.4km/h 80% 0.00in /  0mm
06:59 35.6 °F /  2 °C 30.0 °F /  -1.1 °C 30.07in /  1018.2hPa SW 16.0mph /  25.7km/h 24.0mph /  38.6km/h 80% 0.00in /  0mm
07:04 35.6 °F /  2 °C 29.7 °F /  -1.3 °C 30.07in /  1018.2hPa WSW 12.0mph /  19.3km/h 21.0mph /  33.8km/h 79% 0.00in /  0mm
07:09 35.5 °F /  1.9 °C 29.9 °F /  -1.2 °C 30.08in /  1018.5hPa SW 10.0mph /  16.1km/h 21.0mph /  33.8km/h 80% 0.00in /  0mm
07:19 35.3 °F /  1.8 °C 29.7 °F /  -1.3 °C 30.08in /  1018.5hPa WSW 10.0mph /  16.1km/h 21.0mph /  33.8km/h 80% 0.00in /  0mm
07:24 35.3 °F /  1.8 °C 29.7 °F /  -1.3 °C 30.09in /  1018.8hPa West 14.0mph /  22.5km/h 20.0mph /  32.2km/h 80% 0.00in /  0mm
07:29 35.4 °F /  1.9 °C 29.8 °F /  -1.2 °C 30.09in /  1018.8hPa SW 11.0mph /  17.7km/h 22.0mph /  35.4km/h 80% 0.00in /  0mm
07:34 35.3 °F /  1.8 °C 29.7 °F /  -1.3 °C 30.09in /  1018.8hPa SW 11.0mph /  17.7km/h 22.0mph /  35.4km/h 80% 0.00in /  0mm
07:39 35.4 °F /  1.9 °C 29.8 °F /  -1.2 °C 30.10in /  1019.2hPa WSW 12.0mph /  19.3km/h 23.0mph /  37km/h 80% 0.00in /  0mm
07:44 35.3 °F /  1.8 °C 29.7 °F /  -1.3 °C 30.10in /  1019.2hPa WSW 10.0mph /  16.1km/h 18.0mph /  29km/h 80% 0.00in /  0mm
07:49 35.3 °F /  1.8 °C 29.7 °F /  -1.3 °C 30.11in /  1019.5hPa WSW 8.0mph /  12.9km/h 21.0mph /  33.8km/h 80% 0.00in /  0mm
07:54 35.5 °F /  1.9 °C 29.6 °F /  -1.3 °C 30.11in /  1019.5hPa WSW 11.0mph /  17.7km/h 22.0mph /  35.4km/h 79% 0.00in /  0mm
07:59 35.6 °F /  2 °C 29.4 °F /  -1.4 °C 30.11in /  1019.5hPa SW 11.0mph /  17.7km/h 22.0mph /  35.4km/h 78% 0.00in /  0mm
08:04 35.6 °F /  2 °C 29.4 °F /  -1.4 °C 30.12in /  1019.9hPa WSW 10.0mph /  16.1km/h 20.0mph /  32.2km/h 78% 0.00in /  0mm
08:09 35.7 °F /  2.1 °C 29.2 °F /  -1.6 °C 30.12in /  1019.9hPa WSW 9.0mph /  14.5km/h 19.0mph /  30.6km/h 77% 0.00in /  0mm
08:14 35.8 °F /  2.1 °C 29.3 °F /  -1.5 °C 30.12in /  1019.9hPa SW 13.0mph /  20.9km/h 18.0mph /  29km/h 77% 0.00in /  0mm
08:19 35.8 °F /  2.1 °C 29.3 °F /  -1.5 °C 30.13in /  1020.2hPa SW 10.0mph /  16.1km/h 22.0mph /  35.4km/h 77% 0.00in /  0mm
08:24 35.9 °F /  2.2 °C 29.4 °F /  -1.4 °C 30.13in /  1020.2hPa WSW 17.0mph /  27.4km/h 20.0mph /  32.2km/h 77% 0.00in /  0mm
08:29 36.1 °F /  2.3 °C 29.3 °F /  -1.5 °C 30.14in /  1020.5hPa SW 11.0mph /  17.7km/h 20.0mph /  32.2km/h 76% 0.00in /  0mm
08:34 36.2 °F /  2.3 °C 29.4 °F /  -1.4 °C 30.14in /  1020.5hPa SW 11.0mph /  17.7km/h 22.0mph /  35.4km/h 76% 0.00in /  0mm
08:39 36.3 °F /  2.4 °C 29.5 °F /  -1.4 °C 30.14in /  1020.5hPa WSW 10.0mph /  16.1km/h 22.0mph /  35.4km/h 76% 0.00in /  0mm
08:44 36.5 °F /  2.5 °C 29.3 °F /  -1.5 °C 30.15in /  1020.9hPa WSW 10.0mph /  16.1km/h 24.0mph /  38.6km/h 75% 0.00in /  0mm
08:49 36.7 °F /  2.6 °C 29.5 °F /  -1.4 °C 30.15in /  1020.9hPa SW 8.0mph /  12.9km/h 20.0mph /  32.2km/h 75% 0.00in /  0mm
08:54 36.8 °F /  2.7 °C 29.6 °F /  -1.3 °C 30.15in /  1020.9hPa WNW 8.0mph /  12.9km/h 17.0mph /  27.4km/h 75% 0.00in /  0mm
08:59 37.0 °F /  2.8 °C 29.5 °F /  -1.4 °C 30.15in /  1020.9hPa SW 9.0mph /  14.5km/h 25.0mph /  40.2km/h 74% 0.00in /  0mm
09:04 37.2 °F /  2.9 °C 30.0 °F /  -1.1 °C 30.15in /  1020.9hPa SW 6.0mph /  9.7km/h 17.0mph /  27.4km/h 75% 0.00in /  0mm
09:09 37.5 °F /  3.1 °C 30.0 °F /  -1.1 °C 30.15in /  1020.9hPa SW 11.0mph /  17.7km/h 21.0mph /  33.8km/h 74% 0.00in /  0mm
09:14 37.5 °F /  3.1 °C 30.0 °F /  -1.1 °C 30.16in /  1021.2hPa SW 8.0mph /  12.9km/h 12.0mph /  19.3km/h 74% 0.00in /  0mm
09:19 37.7 °F /  3.2 °C 29.8 °F /  -1.2 °C 30.16in /  1021.2hPa SW 11.0mph /  17.7km/h 20.0mph /  32.2km/h 73% 0.00in /  0mm
09:24 37.9 °F /  3.3 °C 29.7 °F /  -1.3 °C 30.16in /  1021.2hPa SW 9.0mph /  14.5km/h 20.0mph /  32.2km/h 72% 0.00in /  0mm
09:29 38.1 °F /  3.4 °C 29.5 °F /  -1.4 °C 30.16in /  1021.2hPa WSW 6.0mph /  9.7km/h 14.0mph /  22.5km/h 71% 0.00in /  0mm
09:34 38.4 °F /  3.6 °C 29.1 °F /  -1.6 °C 30.16in /  1021.2hPa WSW 12.0mph /  19.3km/h 15.0mph /  24.1km/h 69% 0.00in /  0mm
09:39 38.6 °F /  3.7 °C 28.9 °F /  -1.7 °C 30.17in /  1021.6hPa SW 8.0mph /  12.9km/h 15.0mph /  24.1km/h 68% 0.00in /  0mm
09:44 38.7 °F /  3.7 °C 28.3 °F /  -2.1 °C 30.17in /  1021.6hPa SW 8.0mph /  12.9km/h 15.0mph /  24.1km/h 66% 0.00in /  0mm
09:49 39.0 °F /  3.9 °C 28.2 °F /  -2.1 °C 30.17in /  1021.6hPa SW 8.0mph /  12.9km/h 14.0mph /  22.5km/h 65% 0.00in /  0mm
09:54 39.4 °F /  4.1 °C 28.2 °F /  -2.1 °C 30.17in /  1021.6hPa SW 7.0mph /  11.3km/h 14.0mph /  22.5km/h 64% 0.00in /  0mm
09:59 39.8 °F /  4.3 °C 28.2 °F /  -2.1 °C 30.17in /  1021.6hPa WSW 8.0mph /  12.9km/h 15.0mph /  24.1km/h 63% 0.00in /  0mm
10:04 39.9 °F /  4.4 °C 27.5 °F /  -2.5 °C 30.17in /  1021.6hPa SSW 7.0mph /  11.3km/h 16.0mph /  25.7km/h 61% 0.00in /  0mm
10:09 40.3 °F /  4.6 °C 27.9 °F /  -2.3 °C 30.17in /  1021.6hPa South 5.0mph /  8km/h 16.0mph /  25.7km/h 61% 0.00in /  0mm
10:14 40.6 °F /  4.8 °C 27.8 °F /  -2.3 °C 30.17in /  1021.6hPa SW 10.0mph /  16.1km/h 17.0mph /  27.4km/h 60% 0.00in /  0mm
10:19 41.1 °F /  5.1 °C 27.9 °F /  -2.3 °C 30.16in /  1021.2hPa SW 4.0mph /  6.4km/h 16.0mph /  25.7km/h 59% 0.00in /  0mm
10:24 41.3 °F /  5.2 °C 28.0 °F /  -2.2 °C 30.17in /  1021.6hPa SW 8.0mph /  12.9km/h 16.0mph /  25.7km/h 59% 0.00in /  0mm
10:29 41.3 °F /  5.2 °C 27.6 °F /  -2.4 °C 30.17in /  1021.6hPa South 7.0mph /  11.3km/h 14.0mph /  22.5km/h 58% 0.00in /  0mm
10:34 40.8 °F /  4.9 °C 27.6 °F /  -2.4 °C 30.17in /  1021.6hPa SW 8.0mph /  12.9km/h 17.0mph /  27.4km/h 59% 0.00in /  0mm
10:44 41.7 °F /  5.4 °C 27.6 °F /  -2.4 °C 30.16in /  1021.2hPa WNW 4.0mph /  6.4km/h 14.0mph /  22.5km/h 57% 0.00in /  0mm
10:49 42.0 °F /  5.6 °C 28.3 °F /  -2.1 °C 30.17in /  1021.6hPa West 8.0mph /  12.9km/h 13.0mph /  20.9km/h 58% 0.00in /  0mm
10:54 42.0 °F /  5.6 °C 28.3 °F /  -2.1 °C 30.17in /  1021.6hPa SW 7.0mph /  11.3km/h 13.0mph /  20.9km/h 58% 0.00in /  0mm
10:59 42.1 °F /  5.6 °C 28.4 °F /  -2 °C 30.17in /  1021.6hPa SW 6.0mph /  9.7km/h 12.0mph /  19.3km/h 58% 0.00in /  0mm
11:04 42.0 °F /  5.6 °C 28.3 °F /  -2.1 °C 30.16in /  1021.2hPa WSW 7.0mph /  11.3km/h 15.0mph /  24.1km/h 58% 0.00in /  0mm
11:09 42.1 °F /  5.6 °C 27.9 °F /  -2.3 °C 30.16in /  1021.2hPa SW 6.0mph /  9.7km/h 15.0mph /  24.1km/h 57% 0.00in /  0mm
11:14 41.9 °F /  5.5 °C 28.2 °F /  -2.1 °C 30.15in /  1020.9hPa WSW 5.0mph /  8km/h 14.0mph /  22.5km/h 58% 0.00in /  0mm
11:19 42.0 °F /  5.6 °C 28.7 °F /  -1.8 °C 30.15in /  1020.9hPa SSW 4.0mph /  6.4km/h 11.0mph /  17.7km/h 59% 0.00in /  0mm
11:24 42.0 °F /  5.6 °C 27.9 °F /  -2.3 °C 30.15in /  1020.9hPa SW 8.0mph /  12.9km/h 8.0mph /  12.9km/h 57% 0.00in /  0mm
11:29 42.2 °F /  5.7 °C 28.9 °F /  -1.7 °C 30.15in /  1020.9hPa SSW 4.0mph /  6.4km/h 8.0mph /  12.9km/h 59% 0.00in /  0mm
11:34 42.3 °F /  5.7 °C 29.0 °F /  -1.7 °C 30.14in /  1020.5hPa SW 4.0mph /  6.4km/h 6.0mph /  9.7km/h 59% 0.00in /  0mm
11:39 42.5 °F /  5.8 °C 28.3 °F /  -2.1 °C 30.15in /  1020.9hPa WSW 2.0mph /  3.2km/h 10.0mph /  16.1km/h 57% 0.00in /  0mm
11:44 42.8 °F /  6 °C 28.6 °F /  -1.9 °C 30.15in /  1020.9hPa SSW 5.0mph /  8km/h 10.0mph /  16.1km/h 57% 0.00in /  0mm
11:49 43.1 °F /  6.2 °C 28.9 °F /  -1.7 °C 30.15in /  1020.9hPa SSW 6.0mph /  9.7km/h 16.0mph /  25.7km/h 57% 0.00in /  0mm
11:54 43.8 °F /  6.6 °C 30.0 °F /  -1.1 °C 30.13in /  1020.2hPa South 5.0mph /  8km/h 9.0mph /  14.5km/h 58% 0.00in /  0mm
11:59 43.6 °F /  6.4 °C 28.9 °F /  -1.7 °C 30.13in /  1020.2hPa South 8.0mph /  12.9km/h 15.0mph /  24.1km/h 56% 0.00in /  0mm
12:04 43.8 °F /  6.6 °C 29.5 °F /  -1.4 °C 30.12in /  1019.9hPa South 7.0mph /  11.3km/h 15.0mph /  24.1km/h 57% 0.00in /  0mm
12:09 44.2 °F /  6.8 °C 29.5 °F /  -1.4 °C 30.12in /  1019.9hPa SSW 7.0mph /  11.3km/h 12.0mph /  19.3km/h 56% 0.00in /  0mm
12:14 44.7 °F /  7.1 °C 30.4 °F /  -0.9 °C 30.11in /  1019.5hPa SSW 6.0mph /  9.7km/h 12.0mph /  19.3km/h 57% 0.00in /  0mm
12:19 45.0 °F /  7.2 °C 29.8 °F /  -1.2 °C 30.11in /  1019.5hPa SSW 7.0mph /  11.3km/h 10.0mph /  16.1km/h 55% 0.00in /  0mm
12:24 44.6 °F /  7 °C 29.4 °F /  -1.4 °C 30.11in /  1019.5hPa SSW 5.0mph /  8km/h 9.0mph /  14.5km/h 55% 0.00in /  0mm
12:29 44.9 °F /  7.2 °C 28.8 °F /  -1.8 °C 30.10in /  1019.2hPa SSW 5.0mph /  8km/h 11.0mph /  17.7km/h 53% 0.00in /  0mm
12:34 45.4 °F /  7.4 °C 28.3 °F /  -2.1 °C 30.10in /  1019.2hPa SSW 6.0mph /  9.7km/h 11.0mph /  17.7km/h 51% 0.00in /  0mm
12:39 45.7 °F /  7.6 °C 29.1 °F /  -1.6 °C 30.09in /  1018.8hPa WSW 10.0mph /  16.1km/h 14.0mph /  22.5km/h 52% 0.00in /  0mm
12:44 46.2 °F /  7.9 °C 28.6 °F /  -1.9 °C 30.10in /  1019.2hPa SSW 12.0mph /  19.3km/h 12.0mph /  19.3km/h 50% 0.00in /  0mm
12:49 46.0 °F /  7.8 °C 27.9 °F /  -2.3 °C 30.09in /  1018.8hPa SSW 6.0mph /  9.7km/h 13.0mph /  20.9km/h 49% 0.00in /  0mm
12:54 45.8 °F /  7.7 °C 27.2 °F /  -2.7 °C 30.09in /  1018.8hPa SSW 6.0mph /  9.7km/h 12.0mph /  19.3km/h 48% 0.00in /  0mm
12:59 46.0 °F /  7.8 °C 28.4 °F /  -2 °C 30.08in /  1018.5hPa SSE 7.0mph /  11.3km/h 12.0mph /  19.3km/h 50% 0.00in /  0mm
13:04 46.3 °F /  7.9 °C 27.2 °F /  -2.7 °C 30.08in /  1018.5hPa South 7.0mph /  11.3km/h 13.0mph /  20.9km/h 47% 0.00in /  0mm
13:09 46.7 °F /  8.2 °C 26.5 °F /  -3.1 °C 30.07in /  1018.2hPa SSW 7.0mph /  11.3km/h 13.0mph /  20.9km/h 45% 0.00in /  0mm
13:14 47.0 °F /  8.3 °C 26.2 °F /  -3.2 °C 30.07in /  1018.2hPa SSW 6.0mph /  9.7km/h 14.0mph /  22.5km/h 44% 0.00in /  0mm
13:19 47.4 °F /  8.6 °C 27.6 °F /  -2.4 °C 30.07in /  1018.2hPa SSW 2.0mph /  3.2km/h 11.0mph /  17.7km/h 46% 0.00in /  0mm
13:24 48.2 °F /  9 °C 27.3 °F /  -2.6 °C 30.07in /  1018.2hPa SSE 6.0mph /  9.7km/h 9.0mph /  14.5km/h 44% 0.00in /  0mm
13:29 48.7 °F /  9.3 °C 27.2 °F /  -2.7 °C 30.07in /  1018.2hPa South 4.0mph /  6.4km/h 11.0mph /  17.7km/h 43% 0.00in /  0mm
13:34 48.2 °F /  9 °C 26.2 °F /  -3.2 °C 30.06in /  1017.8hPa South 6.0mph /  9.7km/h 15.0mph /  24.1km/h 42% 0.00in /  0mm
13:39 48.2 °F /  9 °C 26.2 °F /  -3.2 °C 30.06in /  1017.8hPa South 7.0mph /  11.3km/h 16.0mph /  25.7km/h 42% 0.00in /  0mm
13:44 48.9 °F /  9.4 °C 26.2 °F /  -3.2 °C 30.05in /  1017.5hPa South 7.0mph /  11.3km/h 16.0mph /  25.7km/h 41% 0.00in /  0mm
13:49 49.4 °F /  9.7 °C 26.7 °F /  -2.9 °C 30.05in /  1017.5hPa South 7.0mph /  11.3km/h 13.0mph /  20.9km/h 41% 0.00in /  0mm
13:54 49.4 °F /  9.7 °C 26.1 °F /  -3.3 °C 30.05in /  1017.5hPa WSW 9.0mph /  14.5km/h 10.0mph /  16.1km/h 40% 0.00in /  0mm
13:59 49.4 °F /  9.7 °C 26.7 °F /  -2.9 °C 30.04in /  1017.2hPa SSW 6.0mph /  9.7km/h 10.0mph /  16.1km/h 41% 0.00in /  0mm
14:04 49.1 °F /  9.5 °C 25.2 °F /  -3.8 °C 30.04in /  1017.2hPa SSW 6.0mph /  9.7km/h 16.0mph /  25.7km/h 39% 0.00in /  0mm
14:09 48.9 °F /  9.4 °C 25.0 °F /  -3.9 °C 30.04in /  1017.2hPa SSW 6.0mph /  9.7km/h 16.0mph /  25.7km/h 39% 0.00in /  0mm
14:14 49.1 °F /  9.5 °C 25.2 °F /  -3.8 °C 30.03in /  1016.8hPa South 8.0mph /  12.9km/h 16.0mph /  25.7km/h 39% 0.00in /  0mm
14:19 49.3 °F /  9.6 °C 24.7 °F /  -4.1 °C 30.02in /  1016.5hPa SSW 8.0mph /  12.9km/h 16.0mph /  25.7km/h 38% 0.00in /  0mm
14:24 49.4 °F /  9.7 °C 24.2 °F /  -4.3 °C 30.03in /  1016.8hPa SSW 5.0mph /  8km/h 12.0mph /  19.3km/h 37% 0.00in /  0mm
14:29 49.5 °F /  9.7 °C 24.3 °F /  -4.3 °C 30.02in /  1016.5hPa SSW 8.0mph /  12.9km/h 10.0mph /  16.1km/h 37% 0.00in /  0mm
14:34 49.4 °F /  9.7 °C 24.2 °F /  -4.3 °C 30.02in /  1016.5hPa South 5.0mph /  8km/h 11.0mph /  17.7km/h 37% 0.00in /  0mm
14:39 49.5 °F /  9.7 °C 23.6 °F /  -4.7 °C 30.01in /  1016.1hPa South 6.0mph /  9.7km/h 14.0mph /  22.5km/h 36% 0.00in /  0mm
14:44 49.6 °F /  9.8 °C 24.4 °F /  -4.2 °C 30.01in /  1016.1hPa SSW 6.0mph /  9.7km/h 10.0mph /  16.1km/h 37% 0.00in /  0mm
14:49 49.6 °F /  9.8 °C 23.7 °F /  -4.6 °C 30.02in /  1016.5hPa South 10.0mph /  16.1km/h 16.0mph /  25.7km/h 36% 0.00in /  0mm
14:54 49.6 °F /  9.8 °C 25.0 °F /  -3.9 °C 30.02in /  1016.5hPa South 10.0mph /  16.1km/h 14.0mph /  22.5km/h 38% 0.00in /  0mm
14:59 49.7 °F /  9.8 °C 25.1 °F /  -3.8 °C 30.01in /  1016.1hPa SSW 6.0mph /  9.7km/h 14.0mph /  22.5km/h 38% 0.00in /  0mm
15:04 49.6 °F /  9.8 °C 25.0 °F /  -3.9 °C 30.01in /  1016.1hPa SSW 6.0mph /  9.7km/h 11.0mph /  17.7km/h 38% 0.00in /  0mm
15:09 49.5 °F /  9.7 °C 24.9 °F /  -3.9 °C 30.00in /  1015.8hPa SSW 6.0mph /  9.7km/h 14.0mph /  22.5km/h 38% 0.00in /  0mm
15:14 49.4 °F /  9.7 °C 24.8 °F /  -4 °C 30.00in /  1015.8hPa SSW 6.0mph /  9.7km/h 14.0mph /  22.5km/h 38% 0.00in /  0mm
15:19 49.4 °F /  9.7 °C 24.8 °F /  -4 °C 30.00in /  1015.8hPa South 6.0mph /  9.7km/h 13.0mph /  20.9km/h 38% 0.00in /  0mm
15:24 49.4 °F /  9.7 °C 24.2 °F /  -4.3 °C 30.00in /  1015.8hPa SSW 6.0mph /  9.7km/h 12.0mph /  19.3km/h 37% 0.00in /  0mm
15:29 49.2 °F /  9.6 °C 24.6 °F /  -4.1 °C 30.00in /  1015.8hPa SSW 5.0mph /  8km/h 11.0mph /  17.7km/h 38% 0.00in /  0mm
15:34 49.2 °F /  9.6 °C 25.3 °F /  -3.7 °C 30.00in /  1015.8hPa SW 3.0mph /  4.8km/h 10.0mph /  16.1km/h 39% 0.00in /  0mm
15:39 49.1 °F /  9.5 °C 25.2 °F /  -3.8 °C 30.00in /  1015.8hPa SW 3.0mph /  4.8km/h 13.0mph /  20.9km/h 39% 0.00in /  0mm
15:44 49.0 °F /  9.4 °C 25.1 °F /  -3.8 °C 30.00in /  1015.8hPa South 4.0mph /  6.4km/h 11.0mph /  17.7km/h 39% 0.00in /  0mm
15:49 49.0 °F /  9.4 °C 25.1 °F /  -3.8 °C 30.01in /  1016.1hPa SW 3.0mph /  4.8km/h 12.0mph /  19.3km/h 39% 0.00in /  0mm
15:54 48.9 °F /  9.4 °C 25.6 °F /  -3.6 °C 30.01in /  1016.1hPa SW 7.0mph /  11.3km/h 11.0mph /  17.7km/h 40% 0.00in /  0mm
15:59 48.6 °F /  9.2 °C 26.5 °F /  -3.1 °C 30.01in /  1016.1hPa WSW 2.0mph /  3.2km/h 9.0mph /  14.5km/h 42% 0.00in /  0mm
16:04 48.6 °F /  9.2 °C 26.5 °F /  -3.1 °C 30.01in /  1016.1hPa SSW 5.0mph /  8km/h 11.0mph /  17.7km/h 42% 0.00in /  0mm
16:09 48.3 °F /  9.1 °C 26.8 °F /  -2.9 °C 30.01in /  1016.1hPa SSW 4.0mph /  6.4km/h 11.0mph /  17.7km/h 43% 0.00in /  0mm
16:14 48.4 °F /  9.1 °C 26.9 °F /  -2.8 °C 30.01in /  1016.1hPa SW 4.0mph /  6.4km/h 9.0mph /  14.5km/h 43% 0.00in /  0mm
16:19 48.2 °F /  9 °C 26.7 °F /  -2.9 °C 30.01in /  1016.1hPa SW 4.0mph /  6.4km/h 9.0mph /  14.5km/h 43% 0.00in /  0mm
16:24 48.0 °F /  8.9 °C 27.1 °F /  -2.7 °C 30.00in /  1015.8hPa SSE 3.0mph /  4.8km/h 7.0mph /  11.3km/h 44% 0.00in /  0mm
16:29 47.9 °F /  8.8 °C 27.6 °F /  -2.4 °C 30.00in /  1015.8hPa South 5.0mph /  8km/h 8.0mph /  12.9km/h 45% 0.00in /  0mm
16:34 47.6 °F /  8.7 °C 27.8 °F /  -2.3 °C 29.99in /  1015.5hPa SSW 3.0mph /  4.8km/h 8.0mph /  12.9km/h 46% 0.00in /  0mm
16:39 47.3 °F /  8.5 °C 27.5 °F /  -2.5 °C 29.99in /  1015.5hPa SSW 2.0mph /  3.2km/h 5.0mph /  8km/h 46% 0.00in /  0mm
16:44 47.1 °F /  8.4 °C 27.9 °F /  -2.3 °C 29.99in /  1015.5hPa SSW 2.0mph /  3.2km/h 5.0mph /  8km/h 47% 0.00in /  0mm
16:49 46.8 °F /  8.2 °C 27.6 °F /  -2.4 °C 29.98in /  1015.1hPa SSW 1.0mph /  1.6km/h 3.0mph /  4.8km/h 47% 0.00in /  0mm
16:54 46.3 °F /  7.9 °C 27.7 °F /  -2.4 °C 29.98in /  1015.1hPa Calm   2.0mph /  3.2km/h 48% 0.00in /  0mm
16:59 45.8 °F /  7.7 °C 27.7 °F /  -2.4 °C 29.98in /  1015.1hPa Calm   1.0mph /  1.6km/h 49% 0.00in /  0mm
17:04 45.3 °F /  7.4 °C 27.7 °F /  -2.4 °C 29.97in /  1014.8hPa Calm   2.0mph /  3.2km/h 50% 0.00in /  0mm
17:09 45.2 °F /  7.3 °C 27.6 °F /  -2.4 °C 29.98in /  1015.1hPa Calm   2.0mph /  3.2km/h 50% 0.00in /  0mm
17:14 44.8 °F /  7.1 °C 27.8 °F /  -2.3 °C 29.98in /  1015.1hPa Calm   1.0mph /  1.6km/h 51% 0.00in /  0mm
17:19 44.5 °F /  6.9 °C 28.0 °F /  -2.2 °C 29.98in /  1015.1hPa Calm     52% 0.00in /  0mm
17:24 43.8 °F /  6.6 °C 27.8 °F /  -2.3 °C 29.97in /  1014.8hPa Calm     53% 0.00in /  0mm
17:29 43.4 °F /  6.3 °C 27.8 °F /  -2.3 °C 29.97in /  1014.8hPa Calm     54% 0.00in /  0mm
17:34 43.2 °F /  6.2 °C 28.1 °F /  -2.2 °C 29.97in /  1014.8hPa Calm     55% 0.00in /  0mm
17:39 43.6 °F /  6.4 °C 28.5 °F /  -1.9 °C 29.96in /  1014.4hPa Calm     55% 0.00in /  0mm
17:44 44.4 °F /  6.9 °C 29.2 °F /  -1.6 °C 29.95in /  1014.1hPa SSE 2.0mph /  3.2km/h 2.0mph /  3.2km/h 55% 0.00in /  0mm
17:49 45.0 °F /  7.2 °C 29.8 °F /  -1.2 °C 29.95in /  1014.1hPa South 1.0mph /  1.6km/h 3.0mph /  4.8km/h 55% 0.00in /  0mm
17:54 45.2 °F /  7.3 °C 30.4 °F /  -0.9 °C 29.95in /  1014.1hPa South 1.0mph /  1.6km/h 3.0mph /  4.8km/h 56% 0.00in /  0mm
17:59 45.0 °F /  7.2 °C 30.2 °F /  -1 °C 29.95in /  1014.1hPa SW 1.0mph /  1.6km/h 3.0mph /  4.8km/h 56% 0.00in /  0mm
18:09 44.7 °F /  7.1 °C 30.4 °F /  -0.9 °C 29.95in /  1014.1hPa SW 1.0mph /  1.6km/h 3.0mph /  4.8km/h 57% 0.00in /  0mm
18:14 44.5 °F /  6.9 °C 30.2 °F /  -1 °C 29.95in /  1014.1hPa SW 1.0mph /  1.6km/h 3.0mph /  4.8km/h 57% 0.00in /  0mm
18:19 44.2 °F /  6.8 °C 30.3 °F /  -0.9 °C 29.95in /  1014.1hPa Calm   2.0mph /  3.2km/h 58% 0.00in /  0mm
18:24 43.9 °F /  6.6 °C 30.1 °F /  -1.1 °C 29.95in /  1014.1hPa Calm     58% 0.00in /  0mm
18:29 43.8 °F /  6.6 °C 30.4 °F /  -0.9 °C 29.94in /  1013.8hPa Calm     59% 0.00in /  0mm
18:34 43.8 °F /  6.6 °C 30.8 °F /  -0.7 °C 29.95in /  1014.1hPa Calm     60% 0.00in /  0mm
18:39 44.3 °F /  6.8 °C 31.3 °F /  -0.4 °C 29.95in /  1014.1hPa Calm     60% 0.00in /  0mm
18:44 44.7 °F /  7.1 °C 31.7 °F /  -0.2 °C 29.94in /  1013.8hPa Calm   3.0mph /  4.8km/h 60% 0.00in /  0mm
18:49 45.0 °F /  7.2 °C 32.3 °F /  0.2 °C 29.94in /  1013.8hPa South 2.0mph /  3.2km/h 3.0mph /  4.8km/h 61% 0.00in /  0mm
18:54 44.8 °F /  7.1 °C 32.6 °F /  0.3 °C 29.94in /  1013.8hPa Calm   2.0mph /  3.2km/h 62% 0.00in /  0mm
18:59 44.3 °F /  6.8 °C 32.1 °F /  0.1 °C 29.95in /  1014.1hPa Calm   1.0mph /  1.6km/h 62% 0.00in /  0mm
19:04 43.9 °F /  6.6 °C 32.5 °F /  0.3 °C 29.94in /  1013.8hPa Calm     64% 0.00in /  0mm
19:09 44.1 °F /  6.7 °C 32.3 °F /  0.2 °C 29.94in /  1013.8hPa Calm     63% 0.00in /  0mm
19:14 44.2 °F /  6.8 °C 32.4 °F /  0.2 °C 29.94in /  1013.8hPa Calm   3.0mph /  4.8km/h 63% 0.00in /  0mm
19:19 44.6 °F /  7 °C 33.2 °F /  0.7 °C 29.94in /  1013.8hPa South 1.0mph /  1.6km/h 3.0mph /  4.8km/h 64% 0.00in /  0mm
19:24 45.0 °F /  7.2 °C 33.2 °F /  0.7 °C 29.93in /  1013.4hPa SSE 2.0mph /  3.2km/h 4.0mph /  6.4km/h 63% 0.00in /  0mm
19:29 45.2 °F /  7.3 °C 32.9 °F /  0.5 °C 29.93in /  1013.4hPa SSE 2.0mph /  3.2km/h 6.0mph /  9.7km/h 62% 0.00in /  0mm
19:34 45.4 °F /  7.4 °C 33.1 °F /  0.6 °C 29.93in /  1013.4hPa SSW 1.0mph /  1.6km/h 3.0mph /  4.8km/h 62% 0.00in /  0mm
19:39 45.1 °F /  7.3 °C 33.2 °F /  0.7 °C 29.93in /  1013.4hPa SSW 3.0mph /  4.8km/h 3.0mph /  4.8km/h 63% 0.00in /  0mm
19:44 45.8 °F /  7.7 °C 33.9 °F /  1.1 °C 29.93in /  1013.4hPa South 2.0mph /  3.2km/h 5.0mph /  8km/h 63% 0.00in /  0mm
19:49 46.5 °F /  8.1 °C 34.2 °F /  1.2 °C 29.93in /  1013.4hPa South 3.0mph /  4.8km/h 6.0mph /  9.7km/h 62% 0.00in /  0mm
19:54 46.9 °F /  8.3 °C 34.1 °F /  1.2 °C 29.92in /  1013.1hPa South 3.0mph /  4.8km/h 7.0mph /  11.3km/h 61% 0.00in /  0mm
19:59 47.2 °F /  8.4 °C 34.4 °F /  1.3 °C 29.92in /  1013.1hPa South 4.0mph /  6.4km/h 7.0mph /  11.3km/h 61% 0.00in /  0mm
20:04 47.1 °F /  8.4 °C 34.3 °F /  1.3 °C 29.92in /  1013.1hPa South 3.0mph /  4.8km/h 6.0mph /  9.7km/h 61% 0.00in /  0mm
20:09 47.0 °F /  8.3 °C 34.6 °F /  1.4 °C 29.92in /  1013.1hPa South 3.0mph /  4.8km/h 6.0mph /  9.7km/h 62% 0.00in /  0mm
20:14 46.7 °F /  8.2 °C 34.8 °F /  1.6 °C 29.92in /  1013.1hPa South 3.0mph /  4.8km/h 6.0mph /  9.7km/h 63% 0.00in /  0mm
20:19 47.0 °F /  8.3 °C 35.4 °F /  1.9 °C 29.91in /  1012.8hPa South 3.0mph /  4.8km/h 6.0mph /  9.7km/h 64% 0.00in /  0mm
20:24 48.0 °F /  8.9 °C 36.4 °F /  2.4 °C 29.91in /  1012.8hPa South 4.0mph /  6.4km/h 9.0mph /  14.5km/h 64% 0.00in /  0mm
20:29 48.7 °F /  9.3 °C 36.7 °F /  2.6 °C 29.91in /  1012.8hPa SSW 1.0mph /  1.6km/h 9.0mph /  14.5km/h 63% 0.00in /  0mm
20:34 49.3 °F /  9.6 °C 36.8 °F /  2.7 °C 29.90in /  1012.4hPa SSW 3.0mph /  4.8km/h 8.0mph /  12.9km/h 62% 0.00in /  0mm
20:39 49.9 °F /  9.9 °C 37.0 °F /  2.8 °C 29.90in /  1012.4hPa South 3.0mph /  4.8km/h 10.0mph /  16.1km/h 61% 0.00in /  0mm
20:44 49.9 °F /  9.9 °C 37.0 °F /  2.8 °C 29.89in /  1012.1hPa South 3.0mph /  4.8km/h 7.0mph /  11.3km/h 61% 0.00in /  0mm
20:49 49.6 °F /  9.8 °C 36.7 °F /  2.6 °C 29.88in /  1011.7hPa South 4.0mph /  6.4km/h 6.0mph /  9.7km/h 61% 0.00in /  0mm
20:54 49.6 °F /  9.8 °C 36.7 °F /  2.6 °C 29.88in /  1011.7hPa SSE 4.0mph /  6.4km/h 8.0mph /  12.9km/h 61% 0.00in /  0mm
20:59 49.7 °F /  9.8 °C 36.8 °F /  2.7 °C 29.87in /  1011.4hPa South 5.0mph /  8km/h 10.0mph /  16.1km/h 61% 0.00in /  0mm
21:04 49.8 °F /  9.9 °C 36.9 °F /  2.7 °C 29.87in /  1011.4hPa South 5.0mph /  8km/h 11.0mph /  17.7km/h 61% 0.00in /  0mm
21:09 49.9 °F /  9.9 °C 37.4 °F /  3 °C 29.87in /  1011.4hPa South 2.0mph /  3.2km/h 10.0mph /  16.1km/h 62% 0.00in /  0mm
21:14 49.8 °F /  9.9 °C 37.3 °F /  2.9 °C 29.87in /  1011.4hPa South 2.0mph /  3.2km/h 7.0mph /  11.3km/h 62% 0.00in /  0mm
21:19 49.7 °F /  9.8 °C 37.2 °F /  2.9 °C 29.87in /  1011.4hPa SSW 7.0mph /  11.3km/h 12.0mph /  19.3km/h 62% 0.00in /  0mm
21:24 50.0 °F /  10 °C 37.5 °F /  3.1 °C 29.87in /  1011.4hPa South 4.0mph /  6.4km/h 9.0mph /  14.5km/h 62% 0.00in /  0mm
21:29 50.3 °F /  10.2 °C 37.8 °F /  3.2 °C 29.86in /  1011.1hPa SSW 5.0mph /  8km/h 11.0mph /  17.7km/h 62% 0.00in /  0mm
21:34 50.3 °F /  10.2 °C 37.8 °F /  3.2 °C 29.86in /  1011.1hPa SSW 5.0mph /  8km/h 11.0mph /  17.7km/h 62% 0.00in /  0mm
21:39 50.4 °F /  10.2 °C 37.9 °F /  3.3 °C 29.86in /  1011.1hPa SSW 5.0mph /  8km/h 11.0mph /  17.7km/h 62% 0.00in /  0mm
21:49 50.3 °F /  10.2 °C 38.2 °F /  3.4 °C 29.84in /  1010.4hPa SW 6.0mph /  9.7km/h 14.0mph /  22.5km/h 63% 0.00in /  0mm
21:54 50.2 °F /  10.1 °C 38.5 °F /  3.6 °C 29.83in /  1010hPa SSW 4.0mph /  6.4km/h 9.0mph /  14.5km/h 64% 0.00in /  0mm
21:59 50.2 °F /  10.1 °C 38.5 °F /  3.6 °C 29.83in /  1010hPa South 6.0mph /  9.7km/h 13.0mph /  20.9km/h 64% 0.00in /  0mm
22:04 50.3 °F /  10.2 °C 39.0 °F /  3.9 °C 29.83in /  1010hPa South 6.0mph /  9.7km/h 15.0mph /  24.1km/h 65% 0.00in /  0mm
22:09 50.3 °F /  10.2 °C 39.0 °F /  3.9 °C 29.83in /  1010hPa SSW 5.0mph /  8km/h 12.0mph /  19.3km/h 65% 0.00in /  0mm
22:14 50.1 °F /  10.1 °C 39.2 °F /  4 °C 29.82in /  1009.7hPa SSE 5.0mph /  8km/h 10.0mph /  16.1km/h 66% 0.00in /  0mm
22:19 50.0 °F /  10 °C 39.1 °F /  3.9 °C 29.82in /  1009.7hPa South 8.0mph /  12.9km/h 9.0mph /  14.5km/h 66% 0.00in /  0mm
22:24 50.3 °F /  10.2 °C 40.1 °F /  4.5 °C 29.82in /  1009.7hPa South 6.0mph /  9.7km/h 14.0mph /  22.5km/h 68% 0.00in /  0mm
22:29 50.8 °F /  10.4 °C 41.0 °F /  5 °C 29.81in /  1009.4hPa South 5.0mph /  8km/h 12.0mph /  19.3km/h 69% 0.00in /  0mm
22:34 51.2 °F /  10.7 °C 41.7 °F /  5.4 °C 29.81in /  1009.4hPa South 7.0mph /  11.3km/h 20.0mph /  32.2km/h 70% 0.00in /  0mm
22:39 51.8 °F /  11 °C 42.7 °F /  5.9 °C 29.81in /  1009.4hPa South 10.0mph /  16.1km/h 25.0mph /  40.2km/h 71% 0.00in /  0mm
22:44 52.0 °F /  11.1 °C 42.5 °F /  5.8 °C 29.80in /  1009hPa South 11.0mph /  17.7km/h 25.0mph /  40.2km/h 70% 0.00in /  0mm
22:49 51.9 °F /  11.1 °C 42.8 °F /  6 °C 29.80in /  1009hPa South 10.0mph /  16.1km/h 22.0mph /  35.4km/h 71% 0.00in /  0mm
22:54 51.8 °F /  11 °C 43.4 °F /  6.3 °C 29.79in /  1008.7hPa SE 14.0mph /  22.5km/h 21.0mph /  33.8km/h 73% 0.00in /  0mm
22:59 51.7 °F /  10.9 °C 43.3 °F /  6.3 °C 29.79in /  1008.7hPa ESE 8.0mph /  12.9km/h 18.0mph /  29km/h 73% 0.00in /  0mm
23:04 51.5 °F /  10.8 °C 43.5 °F /  6.4 °C 29.80in /  1009hPa South 11.0mph /  17.7km/h 18.0mph /  29km/h 74% 0.00in /  0mm
23:09 51.4 °F /  10.8 °C 44.1 °F /  6.7 °C 29.79in /  1008.7hPa South 15.0mph /  24.1km/h 19.0mph /  30.6km/h 76% 0.00in /  0mm
23:14 51.2 °F /  10.7 °C 44.2 °F /  6.8 °C 29.79in /  1008.7hPa South 8.0mph /  12.9km/h 16.0mph /  25.7km/h 77% 0.00in /  0mm
23:19 51.2 °F /  10.7 °C 44.2 °F /  6.8 °C 29.80in /  1009hPa SSW 10.0mph /  16.1km/h 22.0mph /  35.4km/h 77% 0.00in /  0mm
23:24 51.0 °F /  10.6 °C 44.0 °F /  6.7 °C 29.80in /  1009hPa SSW 13.0mph /  20.9km/h 22.0mph /  35.4km/h 77% 0.00in /  0mm
23:29 51.0 °F /  10.6 °C 44.7 °F /  7.1 °C 29.80in /  1009hPa WSW 14.0mph /  22.5km/h 24.0mph /  38.6km/h 79% 0.00in /  0mm
23:34 50.4 °F /  10.2 °C 44.8 °F /  7.1 °C 29.79in /  1008.7hPa South 11.0mph /  17.7km/h 17.0mph /  27.4km/h 81% 0.01in /  0.25mm
23:39 50.0 °F /  10 °C 45.0 °F /  7.2 °C 29.79in /  1008.7hPa South 8.0mph /  12.9km/h 17.0mph /  27.4km/h 83% 0.02in /  0.51mm
23:44 49.8 °F /  9.9 °C 45.2 °F /  7.3 °C 29.78in /  1008.4hPa South 8.0mph /  12.9km/h 17.0mph /  27.4km/h 84% 0.03in /  0.76mm
23:49 49.7 °F /  9.8 °C 45.4 °F /  7.4 °C 29.78in /  1008.4hPa South 9.0mph /  14.5km/h 17.0mph /  27.4km/h 85% 0.03in /  0.76mm
23:54 49.7 °F /  9.8 °C 45.4 °F /  7.4 °C 29.78in /  1008.4hPa South 9.0mph /  14.5km/h 17.0mph /  27.4km/h 85% 0.03in /  0.76mm
23:59 49.8 °F /  9.9 °C 45.5 °F /  7.5 °C 29.77in /  1008hPa WSW 8.0mph /  12.9km/h 16.0mph /  25.7km/h 85% 0.03in /  0.76mm
Buffalo, New York, USA
Compliments of Weather Underground - 2.5 mb